Dades meteomassalio
Diari Summary for Noviembre 12, 2017 Units:  Metric    English   Both
« Previous Day
Next Day »
Diari Semanal Mensual Anual Personalitzat
  Maxima: Minima: Mijana:
Temperatura: -17.8 °C -11.9 °C -10 °C
Rosada: -17.8 °C -15.2 °C -14.1 °C
Humitat: Humidity % 49 % 62 %
Velocitat del vent: 0 km/h 17.9 km/h 53.9 km/h
Racha vent: 0 km/h - -
Vent:- - NW
Pressio: 0 hPa 34428.8 hPa -
Pluja: 0 mm    
Historical Graphs
 
 
Tabular Data for Noviembre 12, 2017
Time Temperature Dew Point Pressure Wind Wind Speed Wind Gust Humidity Rainfall Rate (Hourly) solar Conditions
-17.8 °C -17.8 °C 0 hPa Calm     Humidity % 0 mm SolarRadiationWatts/m^2 W/m2 Conditions
00:02 -11.6 °C -15.1 °C 34750.5 hPa WNW 32.8 km/h 32.8 km/h 65 % 0 mm 0.0 W/m2 CLR
00:07 -11.6 °C -15.1 °C 34750.5 hPa NW 33.6 km/h 33.6 km/h 65 % 0 mm 0.0 W/m2 CLR
00:12 -11.6 °C -15.1 °C 34750.5 hPa NW 41.7 km/h 41.7 km/h 65 % 0 mm 0.0 W/m2 CLR
00:17 -11.3 °C -14.8 °C 34750.5 hPa WNW 41.7 km/h 41.7 km/h 65 % 0 mm 0.0 W/m2 CLR
00:22 -11.3 °C -14.8 °C 34750.5 hPa WNW 29.8 km/h 29.8 km/h 65 % 0 mm 0.0 W/m2 CLR
00:27 -11.3 °C -14.8 °C 34750.5 hPa WNW 41.7 km/h 41.7 km/h 65 % 0 mm 0.0 W/m2 CLR
00:32 -11.3 °C -14.8 °C 34750.5 hPa West 38.8 km/h 38.8 km/h 65 % 0 mm 0.0 W/m2 CLR
00:37 -11.3 °C -14.7 °C 34750.5 hPa WNW 29.8 km/h 29.8 km/h 66 % 0 mm 0.0 W/m2 CLR
00:42 -11.3 °C -14.7 °C 34740.4 hPa WNW 29.8 km/h 29.8 km/h 66 % 0 mm 0.0 W/m2 CLR
00:47 -11.3 °C -14.7 °C 34740.4 hPa WNW 25.9 km/h 25.9 km/h 66 % 0 mm 0.0 W/m2 CLR
00:52 -11.6 °C -15 °C 34740.4 hPa NW 44.7 km/h 44.7 km/h 66 % 0 mm 0.0 W/m2 CLR
00:57 -11.6 °C -15 °C 34740.4 hPa NW 38.8 km/h 38.8 km/h 66 % 0 mm 0.0 W/m2 CLR
01:02 -11.6 °C -15 °C 34726.8 hPa NW 38.8 km/h 38.8 km/h 66 % 0 mm 0.0 W/m2 CLR
01:07 -11.3 °C -14.7 °C 34726.8 hPa NW 53.6 km/h 53.6 km/h 66 % 0 mm 0.0 W/m2 CLR
01:12 -11.3 °C -14.7 °C 34726.8 hPa WNW 47.6 km/h 47.6 km/h 66 % 0 mm 0.0 W/m2 CLR
01:17 -11.3 °C -14.6 °C 34726.8 hPa NNW 31.1 km/h 31.1 km/h 67 % 0 mm 0.0 W/m2 CLR
01:22 -11 °C -14.3 °C 34726.8 hPa WNW 29.8 km/h 29.8 km/h 67 % 0 mm 0.0 W/m2 CLR
01:27 -11 °C -14.3 °C 34726.8 hPa WNW 29.8 km/h 29.8 km/h 67 % 0 mm 0.0 W/m2 CLR
01:32 -11.3 °C -14.6 °C 34716.7 hPa NW 29.8 km/h 29.8 km/h 67 % 0 mm 0.0 W/m2 CLR
01:37 -11.3 °C -14.6 °C 34716.7 hPa WNW 41.7 km/h 41.7 km/h 67 % 0 mm 0.0 W/m2 CLR
01:42 -11.3 °C -14.6 °C 34716.7 hPa WNW 29.8 km/h 29.8 km/h 67 % 0 mm 0.0 W/m2 CLR
01:47 -11.3 °C -14.6 °C 34716.7 hPa WNW 35.7 km/h 35.7 km/h 67 % 0 mm 0.0 W/m2 CLR
01:52 -11.3 °C -14.6 °C 34703.1 hPa NW 35.7 km/h 35.7 km/h 67 % 0 mm 0.0 W/m2 CLR
01:57 -11.3 °C -14.6 °C 34703.1 hPa WNW 35.7 km/h 35.7 km/h 67 % 0 mm 0.0 W/m2 CLR
02:02 -11.6 °C -14.9 °C 34703.1 hPa WNW 31.1 km/h 31.1 km/h 67 % 0 mm 0.0 W/m2 CLR
02:07 -11.6 °C -14.9 °C 34703.1 hPa WNW 29.8 km/h 29.8 km/h 67 % 0 mm 0.0 W/m2 CLR
02:12 -11.6 °C -14.9 °C 34703.1 hPa West 33.6 km/h 33.6 km/h 67 % 0 mm 0.0 W/m2 CLR
02:17 -11.6 °C -14.9 °C 34703.1 hPa West 26.9 km/h 26.9 km/h 67 % 0 mm 0.0 W/m2 CLR
02:22 -11.6 °C -14.8 °C 34703.1 hPa WNW 26.9 km/h 26.9 km/h 68 % 0 mm 0.0 W/m2 CLR
02:27 -11.9 °C -15.1 °C 34703.1 hPa West 17.9 km/h 17.9 km/h 68 % 0 mm 0.0 W/m2 CLR
02:32 -11.9 °C -14.9 °C 34703.1 hPa WSW 17.9 km/h 17.9 km/h 69 % 0 mm 0.0 W/m2 CLR
02:37 -11.6 °C -14.7 °C 34703.1 hPa West 26.9 km/h 26.9 km/h 69 % 0 mm 0.0 W/m2 CLR
02:42 -11.6 °C -14.6 °C 34703.1 hPa West 29.8 km/h 29.8 km/h 70 % 0 mm 0.0 W/m2 CLR
02:47 -11.6 °C -14.6 °C 34693 hPa West 29.8 km/h 29.8 km/h 70 % 0 mm 0.0 W/m2 CLR
02:52 -11.9 °C -14.8 °C 34693 hPa West 26.9 km/h 26.9 km/h 70 % 0 mm 0.0 W/m2 CLR
02:57 -11.9 °C -14.8 °C 34693 hPa West 29.8 km/h 29.8 km/h 70 % 0 mm 0.0 W/m2 CLR
03:02 -11.9 °C -14.9 °C 34693 hPa NW 29.8 km/h 29.8 km/h 69 % 0 mm 0.0 W/m2 CLR
03:07 -11.9 °C -14.9 °C 34693 hPa WNW 20.9 km/h 20.9 km/h 69 % 0 mm 0.0 W/m2 CLR
03:12 -11.6 °C -14.8 °C 34693 hPa WNW 32.8 km/h 32.8 km/h 68 % 0 mm 0.0 W/m2 CLR
03:17 -11.3 °C -14.6 °C 34693 hPa WNW 41.7 km/h 41.7 km/h 67 % 0 mm 0.0 W/m2 CLR
03:22 -11.3 °C -14.7 °C 34693 hPa WNW 41.7 km/h 41.7 km/h 66 % 0 mm 0.0 W/m2 CLR
03:27 -11 °C -14.4 °C 34693 hPa West 36.2 km/h 36.2 km/h 66 % 0 mm 0.0 W/m2 CLR
03:32 -11 °C -14.4 °C 34682.8 hPa West 35.7 km/h 35.7 km/h 66 % 0 mm 0.0 W/m2 CLR
03:37 -11 °C -14.4 °C 34682.8 hPa West 35.7 km/h 35.7 km/h 66 % 0 mm 0.0 W/m2 CLR
03:42 -11 °C -14.4 °C 34682.8 hPa West 38.8 km/h 38.8 km/h 66 % 0 mm 0.0 W/m2 CLR
03:47 -11 °C -14.4 °C 34682.8 hPa West 44.7 km/h 44.7 km/h 66 % 0 mm 0.0 W/m2 CLR
03:48 -11 °C -14.4 °C 34682.8 hPa WNW 44.7 km/h 44.7 km/h 66 % 0 mm 0.0 W/m2 CLR
03:53 -11 °C -14.4 °C 34682.8 hPa WNW 29.8 km/h 29.8 km/h 66 % 0 mm 0.0 W/m2 CLR
03:58 -11 °C -14.3 °C 34682.8 hPa WNW 38.8 km/h 38.8 km/h 67 % 0 mm 0.0 W/m2 CLR
04:03 -11 °C -14.4 °C 34669.3 hPa NNW 44.7 km/h 44.7 km/h 66 % 0 mm 0.0 W/m2 CLR
04:08 -11 °C -14.3 °C 34669.3 hPa NW 50.7 km/h 50.7 km/h 67 % 0 mm 0.0 W/m2 CLR
04:13 -11 °C -14.4 °C 34669.3 hPa NNW 65.5 km/h 65.5 km/h 66 % 0 mm 0.0 W/m2 CLR
04:18 -11 °C -14.4 °C 34659.1 hPa NNW 47.6 km/h 47.6 km/h 66 % 0 mm 0.0 W/m2 CLR
04:21 -11 °C -14.4 °C 34659.1 hPa NNW 62.6 km/h 62.6 km/h 66 % 0 mm 0.0 W/m2 CLR
04:24 -11 °C -14.4 °C 34659.1 hPa NW 71.5 km/h 71.5 km/h 66 % 0 mm 0.0 W/m2 CLR
04:25 -11 °C -14.4 °C 34659.1 hPa NW 71.5 km/h 71.5 km/h 66 % 0 mm 0.0 W/m2 CLR
04:30 -11 °C -14.4 °C 34659.1 hPa NNW 59.5 km/h 59.5 km/h 66 % 0 mm 0.0 W/m2 CLR
04:31 -11 °C -14.4 °C 34659.1 hPa NW 59.5 km/h 59.5 km/h 66 % 0 mm 0.0 W/m2 CLR
04:36 -11 °C -14.4 °C 34659.1 hPa NNW 53.6 km/h 53.6 km/h 66 % 0 mm 0.0 W/m2 CLR
04:41 -10.7 °C -14.3 °C 34669.3 hPa NW 38.8 km/h 38.8 km/h 65 % 0 mm 0.0 W/m2 CLR
04:46 -10.7 °C -14.3 °C 34669.3 hPa NW 31.1 km/h 31.1 km/h 65 % 0 mm 0.0 W/m2 CLR
04:51 -10.7 °C -14.3 °C 34669.3 hPa WNW 38.8 km/h 38.8 km/h 65 % 0 mm 0.0 W/m2 CLR
04:56 -10.7 °C -14.3 °C 34669.3 hPa WNW 29.8 km/h 29.8 km/h 65 % 0 mm 0.0 W/m2 CLR
05:01 -10.7 °C -14.3 °C 34682.8 hPa NW 38.8 km/h 38.8 km/h 65 % 0 mm 0.0 W/m2 CLR
05:06 -10.7 °C -14.3 °C 34669.3 hPa WNW 23.3 km/h 23.3 km/h 65 % 0 mm 0.0 W/m2 CLR
05:11 -10.7 °C -14.3 °C 34669.3 hPa WNW 32.8 km/h 32.8 km/h 65 % 0 mm 0.0 W/m2 CLR
05:16 -10.7 °C -14.3 °C 34669.3 hPa WNW 47.6 km/h 47.6 km/h 65 % 0 mm 0.0 W/m2 CLR
05:21 -10.7 °C -14.3 °C 34669.3 hPa NW 44.7 km/h 44.7 km/h 65 % 0 mm 0.0 W/m2 CLR
05:26 -10.7 °C -14.3 °C 34669.3 hPa NNW 50.7 km/h 50.7 km/h 65 % 0 mm 0.0 W/m2 CLR
05:31 -10.7 °C -14.3 °C 34669.3 hPa NW 53.6 km/h 53.6 km/h 65 % 0 mm 0.0 W/m2 CLR
05:36 -11 °C -14.6 °C 34669.3 hPa NW 50.7 km/h 50.7 km/h 65 % 0 mm 0.0 W/m2 CLR
05:41 -11 °C -14.6 °C 34669.3 hPa WNW 56.6 km/h 56.6 km/h 65 % 0 mm 0.0 W/m2 CLR
05:46 -11 °C -14.6 °C 34669.3 hPa NW 50.7 km/h 50.7 km/h 65 % 0 mm 0.0 W/m2 CLR
05:51 -11 °C -14.6 °C 34669.3 hPa NNW 53.6 km/h 53.6 km/h 65 % 0 mm 0.0 W/m2 CLR
05:56 -11 °C -14.6 °C 34669.3 hPa NNW 68.6 km/h 68.6 km/h 65 % 0 mm 0.0 W/m2 CLR
06:01 -11 °C -14.6 °C 34669.3 hPa NW 54.4 km/h 54.4 km/h 65 % 0 mm 0.0 W/m2 CLR
06:06 -11 °C -14.6 °C 34682.8 hPa NNW 50.7 km/h 50.7 km/h 65 % 0 mm 0.0 W/m2 CLR
06:11 -11 °C -14.6 °C 34682.8 hPa NW 38.8 km/h 38.8 km/h 65 % 0 mm 0.0 W/m2 CLR
06:16 -11 °C -14.6 °C 34682.8 hPa WNW 41.7 km/h 41.7 km/h 65 % 0 mm 0.0 W/m2 CLR
06:21 -11 °C -14.6 °C 34682.8 hPa NW 41.7 km/h 41.7 km/h 65 % 0 mm 0.0 W/m2 CLR
06:26 -11.3 °C -14.7 °C 34682.8 hPa NW 35.7 km/h 35.7 km/h 66 % 0 mm 0.0 W/m2 CLR
06:31 -11.3 °C -14.7 °C 34682.8 hPa NW 47.6 km/h 47.6 km/h 66 % 0 mm 0.0 W/m2 CLR
06:36 -11.3 °C -14.7 °C 34682.8 hPa NW 32.8 km/h 32.8 km/h 66 % 0 mm 0.0 W/m2 CLR
06:41 -11.3 °C -14.7 °C 34669.3 hPa NW 33.6 km/h 33.6 km/h 66 % 0 mm 0.0 W/m2 CLR
06:46 -11.3 °C -14.7 °C 34669.3 hPa WNW 41.7 km/h 41.7 km/h 66 % 0 mm 0.0 W/m2 CLR
06:51 -11.3 °C -14.6 °C 34669.3 hPa WNW 35.7 km/h 35.7 km/h 67 % 0 mm 0.0 W/m2 CLR
06:56 -11.6 °C -14.9 °C 34669.3 hPa NW 29.8 km/h 29.8 km/h 67 % 0 mm 0.0 W/m2 CLR
07:01 -11.3 °C -14.6 °C 34669.3 hPa NW 44.7 km/h 44.7 km/h 67 % 0 mm 0.0 W/m2 CLR
07:06 -11.6 °C -14.9 °C 34669.3 hPa NW 56.6 km/h 56.6 km/h 67 % 0 mm 0.0 W/m2 CLR
07:11 -11.6 °C -14.9 °C 34669.3 hPa NNW 50.7 km/h 50.7 km/h 67 % 0 mm 0.0 W/m2 CLR
07:16 -11.3 °C -14.6 °C 34669.3 hPa NW 32.8 km/h 32.8 km/h 67 % 0 mm 0.0 W/m2 CLR
07:21 -11.3 °C -14.6 °C 34669.3 hPa WNW 38.8 km/h 38.8 km/h 67 % 0 mm 0.0 W/m2 CLR
07:26 -11.3 °C -14.6 °C 34669.3 hPa NW 41.7 km/h 41.7 km/h 67 % 0 mm 0.0 W/m2 CLR
07:31 -11.6 °C -14.9 °C 34669.3 hPa NW 47.6 km/h 47.6 km/h 67 % 0 mm 0.0 W/m2 CLR
07:36 -11.6 °C -14.9 °C 34669.3 hPa WNW 53.6 km/h 53.6 km/h 67 % 0 mm 0.0 W/m2 OVC
07:41 -11.6 °C -14.9 °C 34669.3 hPa NW 29.8 km/h 29.8 km/h 67 % 0 mm 0.0 W/m2 OVC
07:46 -11.6 °C -14.9 °C 34669.3 hPa West 38.8 km/h 38.8 km/h 67 % 0 mm 5.0 W/m2 OVC
07:51 -11.6 °C -14.8 °C 34669.3 hPa West 29.8 km/h 29.8 km/h 68 % 0 mm 7.0 W/m2 OVC
07:56 -11.9 °C -15.1 °C 34669.3 hPa WNW 23.8 km/h 23.8 km/h 68 % 0 mm 9.0 W/m2 OVC
08:01 -11.9 °C -15.1 °C 34669.3 hPa WNW 29.8 km/h 29.8 km/h 68 % 0 mm 11.0 W/m2 OVC
08:06 -11.9 °C -15.1 °C 34669.3 hPa WNW 29.8 km/h 29.8 km/h 68 % 0 mm 14.0 W/m2 OVC
08:11 -11.9 °C -15.1 °C 34669.3 hPa NW 23.8 km/h 23.8 km/h 68 % 0 mm 16.0 W/m2 OVC
08:16 -11.9 °C -15.1 °C 34669.3 hPa NW 35.7 km/h 35.7 km/h 68 % 0 mm 25.0 W/m2 OVC
08:21 -11.9 °C -15.2 °C 34669.3 hPa WNW 41.4 km/h 41.4 km/h 67 % 0 mm 35.0 W/m2 OVC
08:26 -11.6 °C -14.9 °C 34669.3 hPa WNW 35.7 km/h 35.7 km/h 67 % 0 mm 47.0 W/m2 OVC
08:31 -11.6 °C -14.9 °C 34669.3 hPa WNW 38.8 km/h 38.8 km/h 67 % 0 mm 53.0 W/m2 OVC
08:36 -11.6 °C -15 °C 34669.3 hPa WNW 41.4 km/h 41.4 km/h 66 % 0 mm 70.0 W/m2 OVC
08:42 -11.3 °C -14.7 °C 34669.3 hPa NW 50.7 km/h 50.7 km/h 66 % 0 mm 84.0 W/m2 OVC
08:46 -11.3 °C -14.7 °C 34669.3 hPa West 46.7 km/h 46.7 km/h 66 % 0 mm 84.0 W/m2 BKN
08:52 -11.3 °C -14.7 °C 34669.3 hPa NW 29.8 km/h 29.8 km/h 66 % 0 mm 114.0 W/m2 SCT
08:57 -11.3 °C -14.7 °C 34669.3 hPa NW 38.8 km/h 38.8 km/h 66 % 0 mm 130.0 W/m2 CLR
09:02 -11 °C -14.6 °C 34669.3 hPa NW 38.8 km/h 38.8 km/h 65 % 0 mm 128.0 W/m2 CLR
09:07 -11 °C -14.6 °C 34669.3 hPa NW 38.8 km/h 38.8 km/h 65 % 0 mm 162.0 W/m2 CLR
09:12 -11 °C -14.6 °C 34669.3 hPa WNW 41.7 km/h 41.7 km/h 65 % 0 mm 179.0 W/m2 CLR
09:17 -10.7 °C -14.4 °C 34669.3 hPa NW 41.7 km/h 41.7 km/h 64 % 0 mm 192.0 W/m2 CLR
09:22 -10.7 °C -14.4 °C 34659.1 hPa NW 41.4 km/h 41.4 km/h 64 % 0 mm 200.0 W/m2 CLR
09:27 -10.7 °C -14.5 °C 34669.3 hPa WNW 50.7 km/h 50.7 km/h 63 % 0 mm 100.0 W/m2 CLR
09:32 -10.7 °C -14.5 °C 34669.3 hPa WNW 35.7 km/h 35.7 km/h 63 % 0 mm 243.0 W/m2 CLR
09:37 -10.4 °C -14.2 °C 34669.3 hPa NW 47.6 km/h 47.6 km/h 63 % 0 mm 257.0 W/m2 CLR
09:42 -10.4 °C -14.3 °C 34669.3 hPa NW 35.7 km/h 35.7 km/h 62 % 0 mm 272.0 W/m2 CLR
09:47 -10.4 °C -14.3 °C 34669.3 hPa NW 44.7 km/h 44.7 km/h 62 % 0 mm 288.0 W/m2 CLR
09:52 -10.4 °C -14.3 °C 34669.3 hPa WNW 44.7 km/h 44.7 km/h 62 % 0 mm 302.0 W/m2 CLR
09:57 -10.4 °C -14.3 °C 34669.3 hPa NNW 50.7 km/h 50.7 km/h 62 % 0 mm 327.0 W/m2 CLR
10:02 -10.1 °C -14.2 °C 34669.3 hPa NNW 50.7 km/h 50.7 km/h 61 % 0 mm 385.0 W/m2 CLR
10:07 -10.1 °C -14.2 °C 34669.3 hPa NW 38.8 km/h 38.8 km/h 61 % 0 mm 232.0 W/m2 CLR
10:12 -10.1 °C -14.2 °C 34669.3 hPa NW 44.7 km/h 44.7 km/h 61 % 0 mm 346.0 W/m2 CLR
10:17 -9.8 °C -13.9 °C 34669.3 hPa NW 35.7 km/h 35.7 km/h 61 % 0 mm 281.0 W/m2 CLR
10:22 -9.8 °C -13.9 °C 34659.1 hPa NW 38.8 km/h 38.8 km/h 61 % 0 mm 380.0 W/m2 CLR
10:27 -9.8 °C -14 °C 34659.1 hPa North 33.6 km/h 33.6 km/h 60 % 0 mm 373.0 W/m2 CLR
10:28 -9.8 °C -14 °C 34659.1 hPa NW 72.6 km/h 72.6 km/h 60 % 0 mm 336.0 W/m2 CLR
10:33 -9.8 °C -14 °C 34659.1 hPa NW 68.6 km/h 68.6 km/h 60 % 0 mm 385.0 W/m2 CLR
10:38 -9.8 °C -14 °C 34645.6 hPa NW 50.7 km/h 50.7 km/h 60 % 0 mm 394.0 W/m2 CLR
10:48 -9.4 °C -13.8 °C 34645.6 hPa NW 47.6 km/h 47.6 km/h 59 % 0 mm 429.0 W/m2 CLR
10:53 -9.4 °C -13.8 °C 34645.6 hPa WNW 46.7 km/h 46.7 km/h 59 % 0 mm 418.0 W/m2 CLR
10:58 -9.4 °C -13.8 °C 34645.6 hPa NW 47.6 km/h 47.6 km/h 59 % 0 mm 425.0 W/m2 CLR
11:03 -9.1 °C -13.7 °C 34635.4 hPa NW 44.7 km/h 44.7 km/h 58 % 0 mm 432.0 W/m2 CLR
11:08 -9.1 °C -13.8 °C 34635.4 hPa NNW 57 km/h 57 km/h 57 % 0 mm 454.0 W/m2 CLR
11:13 -9.1 °C -13.8 °C 34635.4 hPa NNW 50.7 km/h 50.7 km/h 57 % 0 mm 454.0 W/m2 CLR
11:18 -8.8 °C -13.6 °C 34635.4 hPa North 83.4 km/h 83.4 km/h 57 % 0 mm 462.0 W/m2 CLR
11:23 -8.8 °C -13.6 °C 34625.2 hPa North 56.6 km/h 56.6 km/h 57 % 0 mm 462.0 W/m2 CLR
11:28 -8.8 °C -13.6 °C 34625.2 hPa North 62.6 km/h 62.6 km/h 57 % 0 mm 473.0 W/m2 CLR
11:33 -8.8 °C -13.6 °C 34625.2 hPa NNW 68.6 km/h 68.6 km/h 57 % 0 mm 480.0 W/m2 CLR
11:38 -8.8 °C -13.7 °C 34625.2 hPa NNW 86.4 km/h 86.4 km/h 56 % 0 mm 513.0 W/m2 CLR
11:43 -8.8 °C -13.6 °C 34611.7 hPa NW 59.5 km/h 59.5 km/h 57 % 0 mm 496.0 W/m2 CLR
11:48 -8.8 °C -13.7 °C 34611.7 hPa NNW 67.3 km/h 67.3 km/h 56 % 0 mm 494.0 W/m2 CLR
11:53 -8.8 °C -13.8 °C 34611.7 hPa NW 68.6 km/h 68.6 km/h 55 % 0 mm 496.0 W/m2 CLR
11:58 -8.5 °C -13.6 °C 34611.7 hPa NNW 75.2 km/h 75.2 km/h 55 % 0 mm 499.0 W/m2 CLR
12:03 -8.5 °C -13.6 °C 34601.5 hPa NNW 80.5 km/h 80.5 km/h 55 % 0 mm 506.0 W/m2 CLR
12:08 -8.5 °C -13.6 °C 34591.4 hPa NNW 77.4 km/h 77.4 km/h 55 % 0 mm 504.0 W/m2 CLR
12:13 -8.5 °C -13.6 °C 34591.4 hPa NNW 71.5 km/h 71.5 km/h 55 % 0 mm 510.0 W/m2 CLR
12:18 -8.5 °C -13.6 °C 34591.4 hPa NW 53.6 km/h 53.6 km/h 55 % 0 mm 512.0 W/m2 CLR
12:23 -8.2 °C -13.4 °C 34577.8 hPa NNW 77.4 km/h 77.4 km/h 54 % 0 mm 513.0 W/m2 CLR
12:28 -8.2 °C -13.4 °C 34577.8 hPa NW 89.3 km/h 89.3 km/h 54 % 0 mm 515.0 W/m2 CLR
12:33 -8.2 °C -13.4 °C 34577.8 hPa NNW 71.5 km/h 71.5 km/h 54 % 0 mm 517.0 W/m2 CLR
12:38 -8.2 °C -13.6 °C 34577.8 hPa NNW 59.5 km/h 59.5 km/h 53 % 0 mm 517.0 W/m2 CLR
12:43 -7.9 °C -13.3 °C 34577.8 hPa NNW 47.6 km/h 47.6 km/h 53 % 0 mm 517.0 W/m2 CLR
12:48 -7.9 °C -13.3 °C 34577.8 hPa NNW 68.6 km/h 68.6 km/h 53 % 0 mm 524.0 W/m2 CLR
12:53 -8.2 °C -13.6 °C 34567.7 hPa NNW 41.7 km/h 41.7 km/h 53 % 0 mm 531.0 W/m2 CLR
12:58 -7.9 °C -13.3 °C 34567.7 hPa NNW 56.6 km/h 56.6 km/h 53 % 0 mm 526.0 W/m2 CLR
13:03 -7.9 °C -13.4 °C 34554.1 hPa NNW 74.5 km/h 74.5 km/h 52 % 0 mm 515.0 W/m2 CLR
13:08 -7.6 °C -13.2 °C 34554.1 hPa North 49.2 km/h 49.2 km/h 52 % 0 mm 512.0 W/m2 CLR
13:13 -7.6 °C -13.3 °C 34554.1 hPa NNW 67.3 km/h 67.3 km/h 51 % 0 mm 510.0 W/m2 CLR
13:18 -7.6 °C -13.3 °C 34554.1 hPa North 62.6 km/h 62.6 km/h 51 % 0 mm 508.0 W/m2 CLR
13:23 -7.6 °C -13.3 °C 34554.1 hPa North 77.4 km/h 77.4 km/h 51 % 0 mm 503.0 W/m2 CLR
13:24 -7.6 °C -13.3 °C 34554.1 hPa NNW 77.4 km/h 77.4 km/h 51 % 0 mm 503.0 W/m2 CLR
13:29 -7.6 °C -13.3 °C 34544 hPa NW 65.5 km/h 65.5 km/h 51 % 0 mm 504.0 W/m2 CLR
13:34 -7.6 °C -13.3 °C 34544 hPa NNW 68.6 km/h 68.6 km/h 51 % 0 mm 499.0 W/m2 CLR
13:39 -7.6 °C -13.3 °C 34544 hPa NNW 47.6 km/h 47.6 km/h 51 % 0 mm 492.0 W/m2 CLR
13:44 -7.6 °C -13.5 °C 34544 hPa NNW 68.6 km/h 68.6 km/h 50 % 0 mm 489.0 W/m2 CLR
13:49 -7.6 °C -13.3 °C 34533.8 hPa NNW 50.7 km/h 50.7 km/h 51 % 0 mm 482.0 W/m2 CLR
13:54 -7.3 °C -13.2 °C 34533.8 hPa NNW 65.5 km/h 65.5 km/h 50 % 0 mm 476.0 W/m2 CLR
13:59 -7.6 °C -13.5 °C 34533.8 hPa NW 50.7 km/h 50.7 km/h 50 % 0 mm 471.0 W/m2 CLR
14:04 -7.3 °C -13.2 °C 34520.3 hPa North 68.6 km/h 68.6 km/h 50 % 0 mm 466.0 W/m2 CLR
14:09 -7.6 °C -13.5 °C 34520.3 hPa NNW 65.5 km/h 65.5 km/h 50 % 0 mm 461.0 W/m2 CLR
14:14 -7.6 °C -13.5 °C 34520.3 hPa NNW 74.5 km/h 74.5 km/h 50 % 0 mm 452.0 W/m2 CLR
14:19 -7.6 °C -13.5 °C 34520.3 hPa NW 56.6 km/h 56.6 km/h 50 % 0 mm 446.0 W/m2 CLR
14:24 -7.6 °C -13.5 °C 34520.3 hPa NNW 69.8 km/h 69.8 km/h 50 % 0 mm 439.0 W/m2 CLR
14:29 -7.6 °C -13.5 °C 34510.1 hPa North 53.6 km/h 53.6 km/h 50 % 0 mm 429.0 W/m2 CLR
14:34 -7.6 °C -13.5 °C 34510.1 hPa NNW 56.6 km/h 56.6 km/h 50 % 0 mm 422.0 W/m2 CLR
14:39 -7.3 °C -13.4 °C 34510.1 hPa North 65.5 km/h 65.5 km/h 49 % 0 mm 415.0 W/m2 CLR
14:44 -7.6 °C -13.7 °C 34510.1 hPa NW 68.6 km/h 68.6 km/h 49 % 0 mm 403.0 W/m2 CLR
14:49 -7.3 °C -13.4 °C 34510.1 hPa North 59.5 km/h 59.5 km/h 49 % 0 mm 394.0 W/m2 CLR
14:54 -7.3 °C -13.4 °C 34510.1 hPa North 68.6 km/h 68.6 km/h 49 % 0 mm 387.0 W/m2 CLR
14:59 -7.6 °C -13.5 °C 34510.1 hPa NNE 47.6 km/h 47.6 km/h 50 % 0 mm 378.0 W/m2 CLR
15:04 -7.6 °C -13.5 °C 34510.1 hPa North 80.5 km/h 80.5 km/h 50 % 0 mm 369.0 W/m2 CLR
15:09 -7.6 °C -13.5 °C 34510.1 hPa NNW 77.4 km/h 77.4 km/h 50 % 0 mm 357.0 W/m2 CLR
15:14 -7.6 °C -13.5 °C 34510.1 hPa NNW 86.4 km/h 86.4 km/h 50 % 0 mm 345.0 W/m2 CLR
15:19 -7.6 °C -13.5 °C 34510.1 hPa NNW 71.5 km/h 71.5 km/h 50 % 0 mm 334.0 W/m2 CLR
15:24 -7.6 °C -13.3 °C 34510.1 hPa NNW 56.6 km/h 56.6 km/h 51 % 0 mm 323.0 W/m2 CLR
15:29 -7.6 °C -13.3 °C 34520.3 hPa NNW 72.6 km/h 72.6 km/h 51 % 0 mm 311.0 W/m2 CLR
15:34 -7.6 °C -13.3 °C 34510.1 hPa NNW 75.2 km/h 75.2 km/h 51 % 0 mm 302.0 W/m2 CLR
15:39 -7.6 °C -13.2 °C 34510.1 hPa NNW 56.6 km/h 56.6 km/h 52 % 0 mm 288.0 W/m2 CLR
15:44 -7.9 °C -13.4 °C 34510.1 hPa North 77.7 km/h 77.7 km/h 52 % 0 mm 276.0 W/m2 CLR
15:49 -7.9 °C -13.3 °C 34510.1 hPa NNW 54.4 km/h 54.4 km/h 53 % 0 mm 260.0 W/m2 CLR
15:54 -7.9 °C -13.3 °C 34520.3 hPa NW 50.7 km/h 50.7 km/h 53 % 0 mm 250.0 W/m2 CLR
15:59 -8.2 °C -13.6 °C 34510.1 hPa NNW 74.5 km/h 74.5 km/h 53 % 0 mm 236.0 W/m2 CLR
16:04 -8.2 °C -13.4 °C 34510.1 hPa NNW 50.7 km/h 50.7 km/h 54 % 0 mm 234.0 W/m2 CLR
16:09 -8.2 °C -13.6 °C 34510.1 hPa NW 77.4 km/h 77.4 km/h 53 % 0 mm 207.0 W/m2 CLR
16:14 -8.2 °C -13.4 °C 34510.1 hPa NW 38.8 km/h 38.8 km/h 54 % 0 mm 186.0 W/m2 CLR
16:19 -8.5 °C -13.7 °C 34510.1 hPa North 68.6 km/h 68.6 km/h 54 % 0 mm 169.0 W/m2 CLR
16:24 -8.5 °C -13.7 °C 34510.1 hPa NNW 57 km/h 57 km/h 54 % 0 mm 155.0 W/m2 CLR
16:29 -8.5 °C -13.7 °C 34496.6 hPa North 65.5 km/h 65.5 km/h 54 % 0 mm 141.0 W/m2 CLR
16:34 -8.5 °C -13.7 °C 34496.6 hPa NNW 62.6 km/h 62.6 km/h 54 % 0 mm 123.0 W/m2 CLR
16:39 -8.8 °C -13.8 °C 34496.6 hPa NNW 68.6 km/h 68.6 km/h 55 % 0 mm 109.0 W/m2 CLR
16:44 -8.8 °C -13.8 °C 34496.6 hPa NW 54.4 km/h 54.4 km/h 55 % 0 mm 95.0 W/m2 CLR
16:49 -8.8 °C -13.8 °C 34496.6 hPa North 68.6 km/h 68.6 km/h 55 % 0 mm 76.0 W/m2 FEW
16:54 -8.8 °C -13.8 °C 34486.4 hPa North 85.5 km/h 85.5 km/h 55 % 0 mm 53.0 W/m2 SCT
16:59 -8.8 °C -13.8 °C 34496.6 hPa NNW 86.4 km/h 86.4 km/h 55 % 0 mm 51.0 W/m2 SCT
17:04 -8.8 °C -13.8 °C 34486.4 hPa NNW 86.4 km/h 86.4 km/h 55 % 0 mm 42.0 W/m2 BKN
17:09 -8.8 °C -13.7 °C 34496.6 hPa NNW 57 km/h 57 km/h 56 % 0 mm 32.0 W/m2 BKN
17:14 -8.8 °C -13.7 °C 34486.4 hPa North 68.6 km/h 68.6 km/h 56 % 0 mm 21.0 W/m2 BKN
17:19 -9.1 °C -13.8 °C 34486.4 hPa North 56.6 km/h 56.6 km/h 57 % 0 mm 16.0 W/m2 BKN
17:25 -9.1 °C -13.7 °C 34486.4 hPa NNW 71.5 km/h 71.5 km/h 58 % 0 mm 12.0 W/m2 BKN
17:30 -9.1 °C -13.7 °C 34486.4 hPa NNW 56.6 km/h 56.6 km/h 58 % 0 mm 11.0 W/m2 BKN
17:35 -9.4 °C -14 °C 34486.4 hPa NNW 51.8 km/h 51.8 km/h 58 % 0 mm 9.0 W/m2 BKN
17:40 -9.4 °C -13.8 °C 34476.3 hPa NNW 62.6 km/h 62.6 km/h 59 % 0 mm 7.0 W/m2 BKN
17:45 -9.4 °C -13.8 °C 34486.4 hPa North 68.6 km/h 68.6 km/h 59 % 0 mm 5.0 W/m2 OVC
17:50 -9.4 °C -13.8 °C 34476.3 hPa North 51.8 km/h 51.8 km/h 59 % 0 mm 0.0 W/m2 OVC
17:55 -9.4 °C -13.7 °C 34476.3 hPa NNW 74.5 km/h 74.5 km/h 60 % 0 mm 0.0 W/m2 CLR
18:00 -9.4 °C -13.7 °C 34476.3 hPa NW 50.7 km/h 50.7 km/h 60 % 0 mm 0.0 W/m2 CLR
18:05 -9.4 °C -13.7 °C 34476.3 hPa NNW 62.6 km/h 62.6 km/h 60 % 0 mm 0.0 W/m2 CLR
18:10 -9.4 °C -13.7 °C 34486.4 hPa North 80.5 km/h 80.5 km/h 60 % 0 mm 0.0 W/m2 CLR
18:15 -9.4 °C -13.7 °C 34486.4 hPa NNW 98.3 km/h 98.3 km/h 60 % 0 mm 0.0 W/m2 CLR
18:20 -9.4 °C -13.7 °C 34486.4 hPa NNW 71.5 km/h 71.5 km/h 60 % 0 mm 0.0 W/m2 CLR
18:25 -9.4 °C -13.6 °C 34496.6 hPa NNW 65.5 km/h 65.5 km/h 61 % 0 mm 0.0 W/m2 CLR
18:30 -9.8 °C -13.9 °C 34486.4 hPa NNW 65.5 km/h 65.5 km/h 61 % 0 mm 0.0 W/m2 CLR
18:35 -9.8 °C -13.9 °C 34486.4 hPa NW 65.5 km/h 65.5 km/h 61 % 0 mm 0.0 W/m2 CLR
18:40 -9.8 °C -13.9 °C 34496.6 hPa North 51.8 km/h 51.8 km/h 61 % 0 mm 0.0 W/m2 CLR
18:45 -9.8 °C -13.8 °C 34486.4 hPa NW 59.5 km/h 59.5 km/h 62 % 0 mm 0.0 W/m2 CLR
18:50 -9.8 °C -13.8 °C 34486.4 hPa NW 65.5 km/h 65.5 km/h 62 % 0 mm 0.0 W/m2 CLR
18:55 -9.8 °C -13.8 °C 34486.4 hPa NNW 72.6 km/h 72.6 km/h 62 % 0 mm 0.0 W/m2 CLR
19:00 -9.8 °C -13.8 °C 34476.3 hPa NNW 57 km/h 57 km/h 62 % 0 mm 0.0 W/m2 CLR
19:05 -9.8 °C -13.8 °C 34486.4 hPa NW 65.5 km/h 65.5 km/h 62 % 0 mm 0.0 W/m2 CLR
19:10 -9.8 °C -13.8 °C 34486.4 hPa NNW 62.6 km/h 62.6 km/h 62 % 0 mm 0.0 W/m2 CLR
19:15 -9.8 °C -13.8 °C 34486.4 hPa NNW 68.6 km/h 68.6 km/h 62 % 0 mm 0.0 W/m2 CLR
19:20 -9.8 °C -13.8 °C 34476.3 hPa NNW 59.5 km/h 59.5 km/h 62 % 0 mm 0.0 W/m2 CLR
19:25 -9.8 °C -13.9 °C 34486.4 hPa NW 65.5 km/h 65.5 km/h 61 % 0 mm 0.0 W/m2 CLR
19:30 -9.8 °C -13.9 °C 34486.4 hPa NNW 50.7 km/h 50.7 km/h 61 % 0 mm 0.0 W/m2 CLR
19:35 -9.8 °C -13.8 °C 34486.4 hPa NW 56.6 km/h 56.6 km/h 62 % 0 mm 0.0 W/m2 CLR
19:40 -9.8 °C -13.8 °C 34486.4 hPa NW 38.8 km/h 38.8 km/h 62 % 0 mm 0.0 W/m2 CLR
19:45 -10.1 °C -13.9 °C 34486.4 hPa NW 57 km/h 57 km/h 63 % 0 mm 0.0 W/m2 CLR
19:50 -10.1 °C -14.1 °C 34486.4 hPa WNW 50.7 km/h 50.7 km/h 62 % 0 mm 0.0 W/m2 CLR
19:56 -10.1 °C -13.9 °C 34476.3 hPa NW 65.5 km/h 65.5 km/h 63 % 0 mm 0.0 W/m2 CLR
20:01 -10.1 °C -13.9 °C 34476.3 hPa NW 62.6 km/h 62.6 km/h 63 % 0 mm 0.0 W/m2 CLR
20:06 -10.1 °C -13.9 °C 34476.3 hPa NNW 50.7 km/h 50.7 km/h 63 % 0 mm 0.0 W/m2 CLR
20:11 -10.1 °C -13.9 °C 34476.3 hPa NW 50.7 km/h 50.7 km/h 63 % 0 mm 0.0 W/m2 CLR
20:16 -10.1 °C -13.8 °C 34476.3 hPa NNW 50.7 km/h 50.7 km/h 64 % 0 mm 0.0 W/m2 CLR
20:21 -10.1 °C -13.8 °C 34462.7 hPa NNW 59.5 km/h 59.5 km/h 64 % 0 mm 0.0 W/m2 CLR
20:26 -10.1 °C -13.8 °C 34476.3 hPa NNW 62.6 km/h 62.6 km/h 64 % 0 mm 0.0 W/m2 CLR
20:31 -10.1 °C -13.8 °C 34476.3 hPa NNW 77.4 km/h 77.4 km/h 64 % 0 mm 0.0 W/m2 CLR
20:36 -10.1 °C -13.8 °C 34476.3 hPa NNW 50.7 km/h 50.7 km/h 64 % 0 mm 0.0 W/m2 CLR
20:41 -10.1 °C -13.8 °C 34462.7 hPa WNW 50.7 km/h 50.7 km/h 64 % 0 mm 0.0 W/m2 CLR
20:46 -10.1 °C -13.8 °C 34452.6 hPa WNW 50.7 km/h 50.7 km/h 64 % 0 mm 0.0 W/m2 CLR
20:51 -10.1 °C -13.8 °C 34452.6 hPa NW 49.2 km/h 49.2 km/h 64 % 0 mm 0.0 W/m2 CLR
20:56 -10.1 °C -13.8 °C 34462.7 hPa NW 53.6 km/h 53.6 km/h 64 % 0 mm 0.0 W/m2 CLR
21:01 -10.1 °C -13.7 °C 34462.7 hPa WNW 50.7 km/h 50.7 km/h 65 % 0 mm 0.0 W/m2 CLR
21:06 -10.1 °C -13.7 °C 34452.6 hPa NW 53.6 km/h 53.6 km/h 65 % 0 mm 0.0 W/m2 CLR
21:11 -10.1 °C -13.7 °C 34452.6 hPa WNW 44.7 km/h 44.7 km/h 65 % 0 mm 0.0 W/m2 CLR
21:16 -10.1 °C -13.7 °C 34462.7 hPa NW 62.6 km/h 62.6 km/h 65 % 0 mm 0.0 W/m2 CLR
21:21 -10.1 °C -13.7 °C 34452.6 hPa NNW 50.7 km/h 50.7 km/h 65 % 0 mm 0.0 W/m2 CLR
21:26 -10.1 °C -13.7 °C 34462.7 hPa WNW 59.5 km/h 59.5 km/h 65 % 0 mm 0.0 W/m2 CLR
21:31 -10.1 °C -13.6 °C 34462.7 hPa NW 62.6 km/h 62.6 km/h 66 % 0 mm 0.0 W/m2 CLR
21:36 -10.1 °C -13.7 °C 34462.7 hPa NNW 59.5 km/h 59.5 km/h 65 % 0 mm 0.0 W/m2 CLR
21:41 -10.1 °C -13.6 °C 34462.7 hPa NW 50.7 km/h 50.7 km/h 66 % 0 mm 0.0 W/m2 CLR
21:46 -10.1 °C -13.4 °C 34462.7 hPa NNW 89.3 km/h 89.3 km/h 67 % 0 mm 0.0 W/m2 CLR
21:51 -10.1 °C -13.4 °C 34452.6 hPa NW 50.7 km/h 50.7 km/h 67 % 0 mm 0.0 W/m2 CLR
21:56 -10.1 °C -13.4 °C 34452.6 hPa NNW 110.2 km/h 110.2 km/h 67 % 0 mm 0.0 W/m2 CLR
22:01 -10.1 °C -13.4 °C 34452.6 hPa NW 68.6 km/h 68.6 km/h 67 % 0 mm 0.0 W/m2 CLR
22:06 -10.1 °C -13.4 °C 34442.4 hPa NNW 68.6 km/h 68.6 km/h 67 % 0 mm 0.0 W/m2 CLR
22:11 -10.1 °C -13.3 °C 34452.6 hPa NW 83.4 km/h 83.4 km/h 68 % 0 mm 0.0 W/m2 CLR
22:16 -10.1 °C -13.3 °C 34442.4 hPa NNW 80.5 km/h 80.5 km/h 68 % 0 mm 0.0 W/m2 CLR
22:21 -9.8 °C -13 °C 34452.6 hPa NW 83.4 km/h 83.4 km/h 68 % 0 mm 0.0 W/m2 CLR
22:23 -9.8 °C -13 °C 34452.6 hPa NNW 107.2 km/h 107.2 km/h 68 % 0 mm 0.0 W/m2 CLR
22:26 -9.8 °C -13 °C 34452.6 hPa NNW 107.2 km/h 107.2 km/h 68 % 0 mm 0.0 W/m2 CLR
22:31 -10.1 °C -13.2 °C 34452.6 hPa NW 83.4 km/h 83.4 km/h 69 % 0 mm 0.0 W/m2 CLR
22:36 -10.1 °C -13.2 °C 34452.6 hPa NNW 89.3 km/h 89.3 km/h 69 % 0 mm 0.0 W/m2 CLR
22:41 -10.1 °C -13.2 °C 34452.6 hPa NNW 77.4 km/h 77.4 km/h 69 % 0 mm 0.0 W/m2
22:46 -10.1 °C -13.1 °C 34452.6 hPa NNW 67.3 km/h 67.3 km/h 70 % 0 mm 0.0 W/m2 CLR
22:51 -10.1 °C -13.1 °C 34452.6 hPa NW 56.6 km/h 56.6 km/h 70 % 0 mm 0.0 W/m2 CLR
22:56 -10.1 °C -13.1 °C 34442.4 hPa NW 74.5 km/h 74.5 km/h 70 % 0 mm 0.0 W/m2 CLR
23:01 -10.1 °C -13.1 °C 34452.6 hPa NNW 71.5 km/h 71.5 km/h 70 % 0 mm 0.0 W/m2 CLR
23:06 -10.1 °C -13.1 °C 34452.6 hPa NNW 68.6 km/h 68.6 km/h 70 % 0 mm 0.0 W/m2 CLR
23:11 -10.1 °C -13.1 °C 34452.6 hPa NW 68.6 km/h 68.6 km/h 70 % 0 mm 0.0 W/m2 CLR
23:16 -10.1 °C -13.1 °C 34442.4 hPa WNW 62.6 km/h 62.6 km/h 70 % 0 mm 0.0 W/m2 CLR
23:21 -10.1 °C -13.1 °C 34428.8 hPa NNW 72.6 km/h 72.6 km/h 70 % 0 mm 0.0 W/m2 CLR
23:26 -10.1 °C -13.1 °C 34428.8 hPa NW 68.6 km/h 68.6 km/h 70 % 0 mm 0.0 W/m2 CLR
23:31 -10.1 °C -13.1 °C 34428.8 hPa North 65.5 km/h 65.5 km/h 70 % 0 mm 0.0 W/m2 CLR
23:36 -10.1 °C -13.1 °C 34428.8 hPa NNW 71.5 km/h 71.5 km/h 70 % 0 mm 0.0 W/m2 CLR
23:41 -10.1 °C -13.2 °C 34428.8 hPa NNW 89.3 km/h 89.3 km/h 69 % 0 mm 0.0 W/m2 CLR
23:46 -10.1 °C -13.2 °C 34428.8 hPa NW 68.6 km/h 68.6 km/h 69 % 0 mm 0.0 W/m2 CLR
23:51 -10.1 °C -13.2 °C 34428.8 hPa NNW 77.4 km/h 77.4 km/h 69 % 0 mm 0.0 W/m2
23:56 -10.1 °C -13.2 °C 34428.8 hPa NNW 74.5 km/h 74.5 km/h 69 % 0 mm 0.0 W/m2 CLR
Lo Temps de Massalio
Compliments of Weather Underground - 1.25 mb